LPMA/FNC METAR and TAF weather

Enter ICAO airport designator
Station Type Date Time Source
LPMA METAR 2020/07/15 05:30 UTC NOAA

LPMA 150530Z 36020G30KT 330V030 9999 FEW015 21/15 Q1016


Station Type Date Time Source
LPMA Decoded METAR 2020/07/15 05:30 UTC NOAA

Aeroporto Da Madeira, Portugal (LPMA) 32-41-52N 016-46-28W
Jul 15, 2020 - 01:30 AM EDT / 2020.07.15 0530 UTC
Wind: from the N (360 degrees) at 23 MPH (20 KT) gusting to 35 MPH (30 KT) (direction variable):0
Visibility: greater than 7 mile(s):0
Sky conditions: mostly clear
Temperature: 69 F (21 C)
Dew Point: 59 F (15 C)
Relative Humidity: 68%
Pressure (altimeter): 30.00 in. Hg (1016 hPa)
ob: LPMA 150530Z 36020G30KT 330V030 9999 FEW015 21/15 Q1016
cycle: 5

Station Type Date Time Source
LPMA TAF 2020/07/15 06:18 UTC NOAA

TAF LPMA 150500Z 1506/1606 36018G28KT 9999 FEW015
TEMPO 1506/1515 36025G38KT PROB30
TEMPO 1515/1521 VRB12G22KT
BECMG 1521/1524 01010KT

Example: see airport list